createdAt,value
2018-11-07T00:01:28.210Z,44.27
2018-11-07T00:03:56.619Z,44.17
2018-11-07T00:06:24.960Z,41.57
2018-11-07T00:08:53.336Z,47.53
2018-11-07T00:11:21.631Z,48.07
2018-11-07T00:13:50.009Z,43.97
2018-11-07T00:16:18.409Z,42.80
2018-11-07T00:18:46.746Z,48.47
2018-11-07T00:21:15.052Z,49.67
2018-11-07T00:23:43.423Z,46.57
2018-11-07T00:26:11.821Z,43.93
2018-11-07T00:28:40.111Z,45.67
2018-11-07T00:31:08.408Z,46.20
2018-11-07T00:33:36.706Z,43.97
2018-11-07T00:36:05.445Z,46.50
2018-11-07T00:38:33.840Z,46.97
2018-11-07T00:41:02.127Z,42.27
2018-11-07T00:43:30.497Z,47.53
2018-11-07T00:45:58.809Z,43.20
2018-11-07T00:48:27.092Z,45.23
2018-11-07T00:50:55.436Z,45.67
2018-11-07T00:53:23.769Z,46.97
2018-11-07T00:55:52.088Z,44.37
2018-11-07T00:58:20.410Z,49.27
2018-11-07T01:00:48.713Z,45.53
2018-11-07T01:03:17.029Z,44.70
2018-11-07T01:05:45.374Z,45.43
2018-11-07T01:08:13.739Z,48.93
2018-11-07T01:10:42.033Z,45.00
2018-11-07T01:13:10.412Z,50.33
2018-11-07T01:15:38.726Z,46.67
2018-11-07T01:18:07.130Z,51.57
2018-11-07T01:20:35.482Z,58.83
2018-11-07T01:23:03.783Z,60.33
2018-11-07T01:25:32.116Z,53.20
2018-11-07T01:28:00.439Z,50.07
2018-11-07T01:30:28.780Z,48.33
2018-11-07T01:32:57.195Z,49.70
2018-11-07T01:35:25.494Z,54.67
2018-11-07T01:37:53.807Z,47.47
2018-11-07T01:40:22.112Z,48.77
2018-11-07T01:42:50.456Z,46.27
2018-11-07T01:45:18.755Z,47.90
2018-11-07T01:47:47.117Z,51.60
2018-11-07T01:50:15.458Z,49.83
2018-11-07T01:52:43.778Z,51.07
2018-11-07T01:55:12.162Z,49.70
2018-11-07T01:57:40.470Z,52.27
2018-11-07T02:00:10.662Z,47.20
2018-11-07T02:02:39.111Z,50.03
2018-11-07T02:05:07.789Z,48.63
2018-11-07T02:07:36.155Z,48.73
2018-11-07T02:10:05.542Z,47.00
2018-11-07T02:12:33.902Z,48.50
2018-11-07T02:15:02.295Z,50.50
2018-11-07T02:17:30.628Z,48.67
2018-11-07T02:19:58.991Z,50.23
2018-11-07T02:22:27.343Z,50.70
2018-11-07T02:24:55.773Z,51.20
2018-11-07T02:27:24.094Z,47.30
2018-11-07T02:29:52.425Z,53.50
2018-11-07T02:32:20.773Z,50.90
2018-11-07T02:34:49.166Z,52.43
2018-11-07T02:37:17.542Z,47.53
2018-11-07T02:39:45.897Z,49.70
2018-11-07T02:42:14.295Z,50.37
2018-11-07T02:44:42.576Z,49.03
2018-11-07T02:47:10.870Z,53.43
2018-11-07T02:49:39.237Z,52.33
2018-11-07T02:52:07.581Z,50.37
2018-11-07T02:54:35.980Z,55.63
2018-11-07T02:57:04.400Z,53.80
2018-11-07T02:59:32.750Z,52.27
2018-11-07T03:02:01.083Z,54.97
2018-11-07T03:04:29.502Z,53.03
2018-11-07T03:06:57.962Z,56.63
2018-11-07T03:09:26.358Z,52.33
2018-11-07T03:11:54.663Z,53.40
2018-11-07T03:14:23.028Z,52.87
2018-11-07T03:16:51.325Z,52.87
2018-11-07T03:19:19.682Z,51.20
2018-11-07T03:21:48.067Z,54.63
2018-11-07T03:24:16.403Z,58.30
2018-11-07T03:26:44.779Z,56.53
2018-11-07T03:29:13.201Z,58.03
2018-11-07T03:31:41.507Z,59.73
2018-11-07T03:34:09.806Z,60.17
2018-11-07T03:36:38.106Z,59.07
2018-11-07T03:39:08.932Z,56.10
2018-11-07T03:41:37.277Z,57.43
2018-11-07T03:44:06.154Z,57.60
2018-11-07T03:46:34.435Z,60.10
2018-11-07T03:49:02.788Z,59.27
2018-11-07T03:51:31.115Z,58.97
2018-11-07T03:53:59.431Z,63.37
2018-11-07T03:56:27.752Z,55.47
2018-11-07T03:58:56.437Z,58.17
2018-11-07T04:01:24.801Z,51.77
2018-11-07T04:03:53.114Z,59.07
2018-11-07T04:06:21.558Z,55.70
2018-11-07T04:08:49.852Z,53.93
2018-11-07T04:11:18.237Z,54.97
2018-11-07T04:13:46.534Z,59.33
2018-11-07T04:16:14.900Z,62.20
2018-11-07T04:18:43.222Z,55.90
2018-11-07T04:21:11.523Z,62.13
2018-11-07T04:23:39.886Z,57.67
2018-11-07T04:26:08.278Z,62.80
2018-11-07T04:28:36.669Z,70.87
2018-11-07T04:31:05.021Z,63.67
2018-11-07T04:33:33.345Z,59.90
2018-11-07T04:36:01.666Z,74.57
2018-11-07T04:38:30.031Z,65.73
2018-11-07T04:40:58.348Z,57.47
2018-11-07T04:43:26.703Z,68.93
2018-11-07T04:45:55.009Z,75.50
2018-11-07T04:48:23.380Z,56.80
2018-11-07T04:50:51.664Z,67.07
2018-11-07T04:53:20.037Z,60.37
2018-11-07T04:55:48.429Z,64.63
2018-11-07T04:58:16.723Z,60.93
2018-11-07T05:00:45.083Z,60.30
2018-11-07T05:03:13.396Z,62.93
2018-11-07T05:05:41.674Z,91.13
2018-11-07T05:08:10.021Z,83.67
2018-11-07T05:10:38.331Z,63.13
2018-11-07T05:13:06.667Z,74.40
2018-11-07T05:15:35.711Z,66.30
2018-11-07T05:18:04.031Z,77.07
2018-11-07T05:20:32.375Z,65.77
2018-11-07T05:23:00.672Z,67.67
2018-11-07T05:25:28.962Z,66.87
2018-11-07T05:27:57.327Z,72.23
2018-11-07T05:30:25.620Z,69.27
2018-11-07T05:32:53.947Z,62.67
2018-11-07T05:35:22.241Z,79.83
2018-11-07T05:37:50.532Z,84.50
2018-11-07T05:40:18.956Z,71.70
2018-11-07T05:42:47.238Z,86.00
2018-11-07T05:45:15.606Z,81.03
2018-11-07T05:47:43.886Z,83.07
2018-11-07T05:50:12.203Z,81.57
2018-11-07T05:52:40.539Z,136.57
2018-11-07T05:55:09.631Z,94.63
2018-11-07T05:57:37.933Z,89.27
2018-11-07T06:00:07.843Z,131.67
2018-11-07T06:02:36.168Z,104.43
2018-11-07T06:05:04.546Z,80.90
2018-11-07T06:07:32.939Z,94.53
2018-11-07T06:10:01.285Z,100.43
2018-11-07T06:12:29.632Z,86.77
2018-11-07T06:14:57.967Z,93.93
2018-11-07T06:17:26.281Z,114.83
2018-11-07T06:19:54.633Z,161.60
2018-11-07T06:22:22.976Z,85.93
2018-11-07T06:24:51.369Z,87.17
2018-11-07T06:27:19.764Z,104.93
2018-11-07T06:29:48.080Z,87.57
2018-11-07T06:32:16.446Z,114.33
2018-11-07T06:34:44.758Z,93.80
2018-11-07T06:37:13.137Z,72.17
2018-11-07T06:39:41.497Z,103.20
2018-11-07T06:42:09.834Z,88.33
2018-11-07T06:44:38.241Z,88.90
2018-11-07T06:47:06.799Z,83.20
2018-11-07T06:49:35.114Z,87.30
2018-11-07T06:52:03.454Z,79.77
2018-11-07T06:54:31.778Z,87.47
2018-11-07T06:57:00.047Z,80.80
2018-11-07T06:59:28.393Z,89.33
2018-11-07T07:01:56.736Z,105.47
2018-11-07T07:04:25.032Z,81.00
2018-11-07T07:06:53.377Z,104.17
2018-11-07T07:09:21.685Z,82.87
2018-11-07T07:11:50.072Z,81.37
2018-11-07T07:14:18.374Z,82.97
2018-11-07T07:16:46.696Z,91.20
2018-11-07T07:19:14.990Z,92.93
2018-11-07T07:21:43.343Z,87.30
2018-11-07T07:24:11.705Z,89.17
2018-11-07T07:26:40.078Z,96.43
2018-11-07T07:29:08.535Z,85.67
2018-11-07T07:31:36.830Z,91.40
2018-11-07T07:34:05.166Z,95.53
2018-11-07T07:36:33.557Z,117.10
2018-11-07T07:39:01.945Z,116.33
2018-11-07T07:41:30.346Z,102.07
2018-11-07T07:43:58.756Z,75.37
2018-11-07T07:46:27.129Z,75.67
2018-11-07T07:48:55.465Z,66.20
2018-11-07T07:51:23.878Z,63.80
2018-11-07T07:53:52.364Z,56.70
2018-11-07T07:56:20.763Z,57.97
2018-11-07T07:58:49.218Z,66.13
2018-11-07T08:01:17.573Z,55.90
2018-11-07T08:03:45.955Z,53.13
2018-11-07T08:06:14.373Z,49.60
2018-11-07T08:08:42.702Z,48.63
2018-11-07T08:11:11.034Z,50.80
2018-11-07T08:13:39.414Z,51.93
2018-11-07T08:16:07.758Z,47.93
2018-11-07T08:18:36.145Z,44.53
2018-11-07T08:21:04.799Z,47.30
2018-11-07T08:23:33.182Z,46.53
2018-11-07T08:26:01.709Z,50.13
2018-11-07T08:28:30.066Z,40.03
2018-11-07T08:30:58.531Z,43.77
2018-11-07T08:33:26.838Z,41.57
2018-11-07T08:35:55.178Z,48.47
2018-11-07T08:38:23.563Z,47.93
2018-11-07T08:40:51.994Z,46.60
2018-11-07T08:43:20.400Z,45.50
2018-11-07T08:45:48.744Z,48.10
2018-11-07T08:48:17.189Z,46.00
2018-11-07T08:50:45.483Z,46.90
2018-11-07T08:53:13.941Z,50.97
2018-11-07T08:55:42.469Z,58.27
2018-11-07T08:58:10.889Z,54.17
2018-11-07T09:00:39.266Z,52.60
2018-11-07T09:03:07.636Z,49.73
2018-11-07T09:05:35.952Z,49.40
2018-11-07T09:08:04.339Z,47.57
2018-11-07T09:10:32.698Z,55.27
2018-11-07T09:13:01.132Z,47.20
2018-11-07T09:15:29.477Z,48.70
2018-11-07T09:17:57.786Z,46.67
2018-11-07T09:20:26.091Z,47.87
2018-11-07T09:22:54.419Z,51.20
2018-11-07T09:25:22.760Z,48.97
2018-11-07T09:27:51.103Z,53.87
2018-11-07T09:30:20.842Z,52.83
2018-11-07T09:32:49.224Z,51.47
2018-11-07T09:35:17.878Z,44.43
2018-11-07T09:37:46.226Z,53.23
2018-11-07T09:40:16.937Z,44.20
2018-11-07T09:42:46.177Z,44.63
2018-11-07T09:45:15.883Z,44.77
2018-11-07T09:47:44.852Z,40.63
2018-11-07T09:50:13.954Z,46.90
2018-11-07T09:52:42.572Z,41.43
2018-11-07T09:55:12.578Z,42.23
2018-11-07T09:57:41.226Z,36.00
2018-11-07T10:00:13.265Z,37.13
2018-11-07T10:02:41.943Z,31.67
2018-11-07T10:05:10.819Z,34.17
2018-11-07T10:07:40.048Z,34.47
2018-11-07T10:10:10.662Z,32.40
2018-11-07T10:12:39.832Z,32.97
2018-11-07T10:15:08.603Z,27.73
2018-11-07T10:17:37.119Z,30.00
2018-11-07T10:20:08.656Z,30.93
2018-11-07T10:22:37.071Z,30.17
2018-11-07T10:25:06.040Z,29.37
2018-11-07T10:27:34.712Z,30.37
2018-11-07T10:30:03.250Z,33.00
2018-11-07T10:32:31.194Z,31.67
2018-11-07T10:34:59.528Z,30.27
2018-11-07T10:37:32.369Z,30.53
2018-11-07T10:39:56.341Z,30.00
2018-11-07T10:42:24.614Z,27.97
2018-11-07T10:44:52.936Z,33.10
2018-11-07T10:47:21.277Z,28.33
2018-11-07T10:49:49.833Z,28.27
2018-11-07T10:52:18.193Z,30.10
2018-11-07T10:54:46.571Z,30.23
2018-11-07T10:57:14.981Z,32.07
2018-11-07T10:59:43.333Z,31.83
2018-11-07T11:02:17.002Z,30.10
2018-11-07T11:04:45.398Z,29.33
2018-11-07T11:07:13.791Z,32.43
2018-11-07T11:09:42.172Z,36.80
2018-11-07T11:12:10.574Z,33.43
2018-11-07T11:14:38.867Z,33.60
2018-11-07T11:17:07.184Z,31.37
2018-11-07T11:19:35.580Z,25.73
2018-11-07T11:22:03.964Z,24.40
2018-11-07T11:24:32.358Z,25.30
2018-11-07T11:27:00.735Z,26.83
2018-11-07T11:29:29.360Z,25.77
2018-11-07T11:31:57.702Z,26.90
2018-11-07T11:34:26.147Z,29.23
2018-11-07T11:36:54.479Z,25.63
2018-11-07T11:39:22.854Z,28.83
2018-11-07T11:41:51.187Z,29.23
2018-11-07T11:44:19.616Z,28.17
2018-11-07T11:46:48.029Z,27.93
2018-11-07T11:49:16.487Z,28.37
2018-11-07T11:51:44.813Z,29.33
2018-11-07T11:54:13.191Z,28.30
2018-11-07T11:56:41.570Z,27.83
2018-11-07T11:59:10.058Z,25.93
2018-11-07T12:01:38.318Z,23.57
2018-11-07T12:04:06.652Z,29.10
2018-11-07T12:06:35.084Z,25.40
2018-11-07T12:09:03.903Z,24.03
2018-11-07T12:11:32.159Z,24.27
2018-11-07T12:14:00.544Z,28.27
2018-11-07T12:16:28.889Z,24.87
2018-11-07T12:18:57.261Z,23.60
2018-11-07T12:21:25.689Z,28.80
2018-11-07T12:23:53.988Z,25.37
2018-11-07T12:26:22.295Z,23.53
2018-11-07T12:28:50.641Z,28.23
2018-11-07T12:31:19.036Z,22.87
2018-11-07T12:33:47.379Z,24.53
2018-11-07T12:36:15.800Z,21.40
2018-11-07T12:38:44.161Z,24.37
2018-11-07T12:41:12.645Z,24.73
2018-11-07T12:43:40.943Z,24.47
2018-11-07T12:46:09.304Z,24.33
2018-11-07T12:48:37.670Z,20.10
2018-11-07T12:51:06.210Z,22.20
2018-11-07T12:53:34.567Z,22.50
2018-11-07T12:56:02.875Z,23.50
2018-11-07T12:58:31.251Z,22.67
2018-11-07T13:00:59.565Z,20.30
2018-11-07T13:03:27.947Z,18.27
2018-11-07T13:05:56.294Z,18.87
2018-11-07T13:08:24.646Z,21.07
2018-11-07T13:10:53.015Z,23.73
2018-11-07T13:13:21.441Z,20.50
2018-11-07T13:15:49.817Z,17.20
2018-11-07T13:18:18.169Z,21.30
2018-11-07T13:20:46.512Z,16.73
2018-11-07T13:23:14.873Z,16.30
2018-11-07T13:25:43.198Z,18.17
2018-11-07T13:28:11.579Z,12.70
2018-11-07T13:30:39.872Z,14.50
2018-11-07T13:33:08.292Z,11.13
2018-11-07T13:35:36.654Z,10.40
2018-11-07T13:38:05.137Z,13.07
2018-11-07T13:40:33.353Z,10.60
2018-11-07T13:43:01.699Z,9.53
2018-11-07T13:45:30.129Z,10.83
2018-11-07T13:47:58.515Z,14.77
2018-11-07T13:50:26.799Z,11.30
2018-11-07T13:52:55.212Z,13.17
2018-11-07T13:55:23.522Z,18.63
2018-11-07T13:57:51.899Z,12.03
2018-11-07T14:00:22.450Z,10.73
2018-11-07T14:02:51.568Z,11.37
2018-11-07T14:05:19.971Z,7.27
2018-11-07T14:07:48.402Z,8.50
2018-11-07T14:10:20.843Z,9.27
2018-11-07T14:12:49.367Z,12.47
2018-11-07T14:15:17.766Z,19.13
2018-11-07T14:17:46.397Z,12.50
2018-11-07T14:20:14.802Z,10.67
2018-11-07T14:22:43.149Z,9.40
2018-11-07T14:25:12.173Z,7.37
2018-11-07T14:27:40.696Z,7.90
2018-11-07T14:30:11.460Z,10.03
2018-11-07T14:32:41.495Z,7.70
2018-11-07T14:35:09.833Z,7.43
2018-11-07T14:37:38.174Z,10.43
2018-11-07T14:40:06.746Z,11.80
2018-11-07T14:42:35.083Z,9.77
2018-11-07T14:45:03.383Z,7.90
2018-11-07T14:47:31.692Z,9.00
2018-11-07T14:50:00.145Z,7.73
2018-11-07T14:52:28.580Z,6.13
2018-11-07T14:54:56.972Z,7.57
2018-11-07T14:57:25.338Z,8.97
2018-11-07T14:59:53.635Z,9.03
2018-11-07T15:02:21.975Z,8.83
2018-11-07T15:04:50.421Z,8.60
2018-11-07T15:07:18.859Z,11.50
2018-11-07T15:09:53.412Z,10.80
2018-11-07T15:12:21.697Z,9.37
2018-11-07T15:14:50.185Z,8.27
2018-11-07T15:17:18.540Z,9.87
2018-11-07T15:19:46.849Z,13.47
2018-11-07T15:22:15.319Z,13.20
2018-11-07T15:24:43.836Z,17.20
2018-11-07T15:27:12.140Z,16.87
2018-11-07T15:29:40.463Z,19.83
2018-11-07T15:32:08.829Z,14.70
2018-11-07T15:34:37.226Z,9.77
2018-11-07T15:37:06.019Z,12.70
2018-11-07T15:39:34.460Z,11.10
2018-11-07T15:42:02.773Z,9.50
2018-11-07T15:44:31.144Z,9.97
2018-11-07T15:46:59.546Z,12.17
2018-11-07T15:49:27.999Z,12.30
2018-11-07T15:51:56.648Z,17.03
2018-11-07T15:54:24.931Z,12.10
2018-11-07T15:56:53.249Z,15.67
2018-11-07T15:59:21.607Z,13.50
2018-11-07T16:01:49.948Z,15.00
2018-11-07T16:04:18.345Z,12.73
2018-11-07T16:06:46.743Z,11.13
2018-11-07T16:09:15.121Z,11.60
2018-11-07T16:11:43.464Z,10.07
2018-11-07T16:14:11.818Z,10.10
2018-11-07T16:16:40.197Z,13.23
2018-11-07T16:19:08.555Z,13.33
2018-11-07T16:21:36.941Z,11.67
2018-11-07T16:24:06.221Z,11.63
2018-11-07T16:26:34.544Z,12.97
2018-11-07T16:29:02.967Z,14.20
2018-11-07T16:31:31.498Z,13.63
2018-11-07T16:33:59.833Z,12.83
2018-11-07T16:36:28.210Z,11.93
2018-11-07T16:38:56.616Z,15.70
2018-11-07T16:41:25.088Z,12.30
2018-11-07T16:43:53.326Z,10.37
2018-11-07T16:46:21.683Z,15.33
2018-11-07T16:48:50.089Z,15.60
2018-11-07T16:51:18.515Z,16.23
2018-11-07T16:53:46.855Z,12.20
2018-11-07T16:56:15.261Z,13.80
2018-11-07T16:58:43.658Z,13.57
2018-11-07T17:01:12.004Z,10.77
2018-11-07T17:03:40.346Z,13.10
2018-11-07T17:06:08.699Z,14.67
2018-11-07T17:08:37.014Z,13.00
2018-11-07T17:11:05.710Z,13.13
2018-11-07T17:13:34.046Z,13.37
2018-11-07T17:16:02.602Z,18.93
2018-11-07T17:18:30.999Z,19.77
2018-11-07T17:20:59.446Z,19.77
2018-11-07T17:23:27.826Z,19.47
2018-11-07T17:25:56.163Z,14.53
2018-11-07T17:28:24.541Z,12.63
2018-11-07T17:30:52.990Z,13.87
2018-11-07T17:33:21.339Z,15.43
2018-11-07T17:35:49.862Z,13.80
2018-11-07T17:38:18.230Z,11.77
2018-11-07T17:40:46.634Z,14.93
2018-11-07T17:43:14.959Z,12.77
2018-11-07T17:45:43.334Z,15.07
2018-11-07T17:48:11.802Z,13.77
2018-11-07T17:50:40.120Z,25.20
2018-11-07T17:53:08.466Z,32.20
2018-11-07T17:55:37.466Z,22.37
2018-11-07T17:58:06.107Z,15.83
2018-11-07T18:00:35.262Z,15.63
2018-11-07T18:03:03.852Z,20.33
2018-11-07T18:05:32.240Z,16.40
2018-11-07T18:08:00.611Z,15.20
2018-11-07T18:10:29.165Z,21.40
2018-11-07T18:12:57.695Z,22.20
2018-11-07T18:15:26.095Z,20.13
2018-11-07T18:17:54.473Z,19.27
2018-11-07T18:20:22.831Z,14.83
2018-11-07T18:22:51.195Z,20.23
2018-11-07T18:25:19.584Z,16.03
2018-11-07T18:27:48.073Z,17.33
2018-11-07T18:30:17.391Z,14.03
2018-11-07T18:32:46.351Z,15.70
2018-11-07T18:35:16.934Z,15.47
2018-11-07T18:37:45.510Z,20.13
2018-11-07T18:40:15.527Z,17.30
2018-11-07T18:42:43.861Z,19.53
2018-11-07T18:45:12.893Z,16.50
2018-11-07T18:47:42.805Z,15.60
2018-11-07T18:50:12.670Z,17.47
2018-11-07T18:52:41.174Z,19.67
2018-11-07T18:55:11.224Z,24.43
2018-11-07T18:57:39.680Z,19.40
2018-11-07T19:00:10.207Z,19.13
2018-11-07T19:02:38.707Z,16.07
2018-11-07T19:05:07.625Z,15.70
2018-11-07T19:07:36.454Z,20.67
2018-11-07T19:10:06.527Z,17.30
2018-11-07T19:12:34.938Z,17.33
2018-11-07T19:15:03.313Z,14.37
2018-11-07T19:17:31.689Z,16.00
2018-11-07T19:20:00.213Z,18.50
2018-11-07T19:22:28.582Z,17.43
2018-11-07T19:24:56.958Z,14.33
2018-11-07T19:27:25.330Z,17.37
2018-11-07T19:29:53.661Z,16.17
2018-11-07T19:32:22.066Z,17.37
2018-11-07T19:34:50.425Z,19.87
2018-11-07T19:37:18.916Z,17.70
2018-11-07T19:39:47.561Z,23.13
2018-11-07T19:42:16.054Z,18.77
2018-11-07T19:44:44.584Z,18.13
2018-11-07T19:47:13.052Z,16.73
2018-11-07T19:49:41.650Z,16.63
2018-11-07T19:52:10.007Z,14.87
2018-11-07T19:54:38.381Z,15.97
2018-11-07T19:57:07.353Z,13.90
2018-11-07T19:59:35.891Z,20.43
2018-11-07T20:02:04.300Z,14.60
2018-11-07T20:04:32.889Z,16.40
2018-11-07T20:07:01.424Z,14.67
2018-11-07T20:09:29.925Z,15.77
2018-11-07T20:11:58.719Z,16.67
2018-11-07T20:14:27.078Z,16.00
2018-11-07T20:16:55.757Z,13.47
2018-11-07T20:19:24.254Z,15.13
2018-11-07T20:21:52.733Z,16.03
2018-11-07T20:24:21.221Z,16.40
2018-11-07T20:26:49.649Z,13.97
2018-11-07T20:29:18.248Z,14.60
2018-11-07T20:31:47.394Z,16.47
2018-11-07T20:34:15.835Z,14.00
2018-11-07T20:36:44.293Z,16.13
2018-11-07T20:39:13.825Z,15.60
2018-11-07T20:41:42.658Z,14.77
2018-11-07T20:44:11.229Z,15.53
2018-11-07T20:46:40.774Z,15.40
2018-11-07T20:49:09.549Z,18.73
2018-11-07T20:51:38.194Z,18.97
2018-11-07T20:54:06.675Z,13.20
2018-11-07T20:56:35.159Z,12.93
2018-11-07T20:59:03.659Z,13.67
2018-11-07T21:01:32.212Z,13.20
2018-11-07T21:04:00.978Z,12.73
2018-11-07T21:06:29.460Z,14.13
2018-11-07T21:08:57.958Z,15.00
2018-11-07T21:11:26.452Z,16.53
2018-11-07T21:13:54.975Z,21.90
2018-11-07T21:16:23.486Z,13.27
2018-11-07T21:18:51.924Z,17.83
2018-11-07T21:21:21.285Z,13.20
2018-11-07T21:23:49.699Z,15.23
2018-11-07T21:26:18.221Z,13.27
2018-11-07T21:28:46.732Z,18.07
2018-11-07T21:31:15.248Z,16.30
2018-11-07T21:33:44.478Z,12.10
2018-11-07T21:36:13.110Z,12.07
2018-11-07T21:38:41.626Z,14.07
2018-11-07T21:41:10.202Z,16.03
2018-11-07T21:43:38.843Z,13.47
2018-11-07T21:46:07.203Z,12.50
2018-11-07T21:48:35.574Z,13.13
2018-11-07T21:51:04.000Z,14.80
2018-11-07T21:53:32.350Z,12.40
2018-11-07T21:56:00.711Z,10.63
2018-11-07T21:58:29.133Z,11.13
2018-11-07T22:00:57.513Z,11.53
2018-11-07T22:03:25.960Z,13.13
2018-11-07T22:05:54.371Z,22.77
2018-11-07T22:08:22.739Z,18.47
2018-11-07T22:10:51.057Z,17.53
2018-11-07T22:13:19.523Z,17.47
2018-11-07T22:15:47.946Z,18.67
2018-11-07T22:18:16.304Z,17.83
2018-11-07T22:20:44.814Z,17.17
2018-11-07T22:23:13.156Z,15.60
2018-11-07T22:25:41.558Z,14.23
2018-11-07T22:28:10.047Z,15.70
2018-11-07T22:30:38.397Z,15.60
2018-11-07T22:33:06.757Z,14.73
2018-11-07T22:35:35.114Z,17.80
2018-11-07T22:38:03.482Z,18.27
2018-11-07T22:40:31.890Z,15.40
2018-11-07T22:43:00.266Z,15.83
2018-11-07T22:45:28.674Z,14.77
2018-11-07T22:47:57.075Z,19.57
2018-11-07T22:50:25.428Z,19.97
2018-11-07T22:52:53.830Z,21.07
2018-11-07T22:55:22.219Z,15.57
2018-11-07T22:57:50.614Z,17.67
2018-11-07T23:00:24.433Z,11.40
2018-11-07T23:02:54.076Z,15.57
2018-11-07T23:05:22.451Z,13.13
2018-11-07T23:07:51.193Z,15.53
2018-11-07T23:10:19.625Z,14.70
2018-11-07T23:12:48.560Z,13.97
2018-11-07T23:15:22.186Z,11.60
2018-11-07T23:17:51.006Z,10.27
2018-11-07T23:20:19.324Z,8.60
2018-11-07T23:22:47.719Z,12.63
2018-11-07T23:25:16.122Z,11.43
2018-11-07T23:27:44.713Z,12.13
2018-11-07T23:30:13.080Z,10.80
2018-11-07T23:32:41.490Z,11.10
2018-11-07T23:35:09.820Z,11.77
2018-11-07T23:37:38.116Z,13.40
2018-11-07T23:40:06.800Z,15.37
2018-11-07T23:42:35.150Z,14.87
2018-11-07T23:45:03.610Z,12.53
2018-11-07T23:47:32.008Z,11.80
2018-11-07T23:50:00.305Z,11.60
2018-11-07T23:52:33.902Z,9.37
2018-11-07T23:55:02.318Z,8.73
2018-11-07T23:57:30.854Z,11.00
2018-11-07T23:59:59.108Z,10.47
